Time;durP1;ratioP1;P1;durP2;ratioP2;P2;SDS_P1;SDS_P2;PMS_P1;PMS_P2;Temp;Humidity;BMP_temperature;BMP_pressure;BME280_temperature;BME280_humidity;BME280_pressure;Samples;Min_cycle;Max_cycle;Signal;HPM_P1;HPM_P2
2022/09/09 00:00:29;;;;;;;3.25;2.1;;;;;;;14.86;69.9873;95107.08;;;;
2022/09/09 00:01:37;;;;;;;3.25;2.1;;;;;;;14.86;69.9873;95107.08;;;;
2022/09/09 00:02:46;;;;;;;3.25;2.1;;;;;;;14.86;69.9873;95107.08;;;;
2022/09/09 00:03:58;;;;;;;3.25;2.1;;;;;;;14.86;69.9873;95107.08;;;;
2022/09/09 00:05:05;;;;;;;3.25;2.1;;;;;;;14.86;69.9873;95107.08;;;;
2022/09/09 00:06:18;;;;;;;3.25;2.1;;;;;;;14.86;69.9873;95107.08;;;;
2022/09/09 00:07:23;;;;;;;3.25;2.1;;;;;;;14.86;69.9873;95107.08;;;;
2022/09/09 00:08:35;;;;;;;4.099999;2.05;;;;;;;14.37;71.05273;95095.76;;;;
2022/09/09 00:09:50;;;;;;;4.099999;2.05;;;;;;;14.37;71.05273;95095.76;;;;
2022/09/09 00:11:02;;;;;;;4.099999;2.05;;;;;;;14.37;71.05273;95095.76;;;;
2022/09/09 00:12:03;;;;;;;4.099999;2.05;;;;;;;14.37;71.05273;95095.76;;;;
2022/09/09 00:13:11;;;;;;;4.099999;2.05;;;;;;;14.37;71.05273;95095.76;;;;
2022/09/09 00:14:22;;;;;;;4.099999;2.05;;;;;;;14.37;71.05273;95095.76;;;;
2022/09/09 00:15:33;;;;;;;4.099999;2.05;;;;;;;14.37;71.05273;95095.76;;;;
2022/09/09 00:16:40;;;;;;;4.099999;2.05;;;;;;;14.37;71.05273;95095.76;;;;
2022/09/09 00:17:47;;;;;;;4.099999;2.05;;;;;;;14.37;71.05273;95095.76;;;;
2022/09/09 00:18:53;;;;;;;3.9;2.45;;;;;;;14.37;71.24609;95099.34;;;;
2022/09/09 00:20:04;;;;;;;3.9;2.45;;;;;;;14.37;71.24609;95099.34;;;;
2022/09/09 00:21:12;;;;;;;3.9;2.45;;;;;;;14.37;71.24609;95099.34;;;;
2022/09/09 00:22:14;;;;;;;3.9;2.45;;;;;;;14.37;71.24609;95099.34;;;;
2022/09/09 00:23:19;;;;;;;3.9;2.45;;;;;;;14.37;71.24609;95099.34;;;;
2022/09/09 00:24:25;;;;;;;3.9;2.45;;;;;;;14.37;71.24609;95099.34;;;;
2022/09/09 00:25:34;;;;;;;3.9;2.45;;;;;;;14.37;71.24609;95099.34;;;;
2022/09/09 00:26:40;;;;;;;3.9;2.45;;;;;;;14.37;71.24609;95099.34;;;;
2022/09/09 00:27:45;;;;;;;3.9;2.45;;;;;;;14.37;71.24609;95099.34;;;;
2022/09/09 00:28:48;;;;;;;3.9;2.45;;;;;;;14.37;71.24609;95099.34;;;;
2022/09/09 00:29:55;;;;;;;3.4;2.4;;;;;;;14.42;71.38477;95089.72;;;;
2022/09/09 00:31:00;;;;;;;3.4;2.4;;;;;;;14.42;71.38477;95089.72;;;;
2022/09/09 00:32:12;;;;;;;3.4;2.4;;;;;;;14.42;71.38477;95089.72;;;;
2022/09/09 00:33:18;;;;;;;3.4;2.4;;;;;;;14.42;71.38477;95089.72;;;;
2022/09/09 00:34:23;;;;;;;3.4;2.4;;;;;;;14.42;71.38477;95089.72;;;;
2022/09/09 00:35:26;;;;;;;3.4;2.4;;;;;;;14.42;71.38477;95089.72;;;;
2022/09/09 00:36:32;;;;;;;3.4;2.4;;;;;;;14.42;71.38477;95089.72;;;;
2022/09/09 00:37:35;;;;;;;3.4;2.4;;;;;;;14.42;71.38477;95089.72;;;;
2022/09/09 00:38:37;;;;;;;3.4;2.4;;;;;;;14.42;71.38477;95089.72;;;;
2022/09/09 00:39:42;;;;;;;3.4;2.4;;;;;;;14.42;71.38477;95089.72;;;;
2022/09/09 00:40:45;;;;;;;4.35;2.25;;;;;;;14.54;71.51465;95093.92;;;;
2022/09/09 00:41:50;;;;;;;4.35;2.25;;;;;;;14.54;71.51465;95093.92;;;;
2022/09/09 00:43:08;;;;;;;4.35;2.25;;;;;;;14.54;71.51465;95093.92;;;;
2022/09/09 00:44:24;;;;;;;4.35;2.25;;;;;;;14.54;71.51465;95093.92;;;;
2022/09/09 00:45:31;;;;;;;4.35;2.25;;;;;;;14.54;71.51465;95093.92;;;;
2022/09/09 00:46:52;;;;;;;4.35;2.25;;;;;;;14.54;71.51465;95093.92;;;;
2022/09/09 00:48:04;;;;;;;4.35;2.25;;;;;;;14.54;71.51465;95093.92;;;;
2022/09/09 00:49:10;;;;;;;4.35;2.25;;;;;;;14.54;71.51465;95093.92;;;;
2022/09/09 00:50:21;;;;;;;4.35;2.25;;;;;;;14.54;71.51465;95093.92;;;;
2022/09/09 00:51:36;;;;;;;3.1;2.15;;;;;;;14.59;71.63086;95102.91;;;;
2022/09/09 00:52:52;;;;;;;3.1;2.15;;;;;;;14.59;71.63086;95102.91;;;;
2022/09/09 00:54:12;;;;;;;3.1;2.15;;;;;;;14.59;71.63086;95102.91;;;;
2022/09/09 00:55:27;;;;;;;3.1;2.15;;;;;;;14.59;71.63086;95102.91;;;;
2022/09/09 00:56:42;;;;;;;3.1;2.15;;;;;;;14.59;71.63086;95102.91;;;;
2022/09/09 00:57:53;;;;;;;3.1;2.15;;;;;;;14.59;71.63086;95102.91;;;;
2022/09/09 00:58:54;;;;;;;3.1;2.15;;;;;;;14.59;71.63086;95102.91;;;;
2022/09/09 01:00:05;;;;;;;3.1;2.15;;;;;;;14.59;71.63086;95102.91;;;;
2022/09/09 01:01:19;;;;;;;3.9;2.1;;;;;;;14.72;71.85742;95093.42;;;;
2022/09/09 01:02:21;;;;;;;3.9;2.1;;;;;;;14.72;71.85742;95093.42;;;;
2022/09/09 01:03:28;;;;;;;3.9;2.1;;;;;;;14.72;71.85742;95093.42;;;;
2022/09/09 01:04:36;;;;;;;3.9;2.1;;;;;;;14.72;71.85742;95093.42;;;;
2022/09/09 01:05:36;;;;;;;3.9;2.1;;;;;;;14.72;71.85742;95093.42;;;;
2022/09/09 01:06:46;;;;;;;3.9;2.1;;;;;;;14.72;71.85742;95093.42;;;;
2022/09/09 01:07:54;;;;;;;3.9;2.1;;;;;;;14.72;71.85742;95093.42;;;;
2022/09/09 01:08:54;;;;;;;3.9;2.1;;;;;;;14.72;71.85742;95093.42;;;;
2022/09/09 01:10:08;;;;;;;3.9;2.1;;;;;;;14.72;71.85742;95093.42;;;;
2022/09/09 01:11:14;;;;;;;3.9;2.1;;;;;;;14.72;71.85742;95093.42;;;;
2022/09/09 01:12:20;;;;;;;3.9;2.1;;;;;;;14.72;71.85742;95093.42;;;;
2022/09/09 01:13:34;;;;;;;3.9;2.1;;;;;;;14.72;71.85742;95093.42;;;;
2022/09/09 01:14:35;;;;;;;3.9;2.1;;;;;;;14.72;71.85742;95093.42;;;;
2022/09/09 01:15:43;;;;;;;3.9;2.1;;;;;;;14.72;71.85742;95093.42;;;;
2022/09/09 01:16:45;;;;;;;3.9;2.1;;;;;;;14.72;71.85742;95093.42;;;;
2022/09/09 01:17:47;;;;;;;3.9;2.1;;;;;;;14.72;71.85742;95093.42;;;;
2022/09/09 01:18:55;;;;;;;3.9;2.1;;;;;;;14.72;71.85742;95093.42;;;;
2022/09/09 01:19:58;;;;;;;3.9;2.1;;;;;;;14.72;71.85742;95093.42;;;;
2022/09/09 01:21:05;;;;;;;3.9;2.1;;;;;;;14.72;71.85742;95093.42;;;;
2022/09/09 01:22:15;;;;;;;3.9;2.1;;;;;;;14.72;71.85742;95093.42;;;;
2022/09/09 01:23:26;;;;;;;3.75;2.1;;;;;;;14.99;72.12012;95102.25;;;;
2022/09/09 01:24:47;;;;;;;3.75;2.1;;;;;;;14.99;72.12012;95102.25;;;;
2022/09/09 01:26:07;;;;;;;3.75;2.1;;;;;;;14.99;72.12012;95102.25;;;;
2022/09/09 01:27:15;;;;;;;3.75;2.1;;;;;;;14.99;72.12012;95102.25;;;;
2022/09/09 01:28:18;;;;;;;3.75;2.1;;;;;;;14.99;72.12012;95102.25;;;;
2022/09/09 01:29:23;;;;;;;3.75;2.1;;;;;;;14.99;72.12012;95102.25;;;;
2022/09/09 01:30:24;;;;;;;3.75;2.1;;;;;;;14.99;72.12012;95102.25;;;;
2022/09/09 01:31:26;;;;;;;3.75;2.1;;;;;;;14.99;72.12012;95102.25;;;;
2022/09/09 01:32:32;;;;;;;3.75;2.1;;;;;;;14.99;72.12012;95102.25;;;;
2022/09/09 01:33:40;;;;;;;3.6;2.2;;;;;;;15.08;72.22168;95091.56;;;;
2022/09/09 01:34:41;;;;;;;3.6;2.2;;;;;;;15.08;72.22168;95091.56;;;;
2022/09/09 01:35:41;;;;;;;3.6;2.2;;;;;;;15.08;72.22168;95091.56;;;;
2022/09/09 01:36:50;;;;;;;3.6;2.2;;;;;;;15.08;72.22168;95091.56;;;;
2022/09/09 01:37:57;;;;;;;3.6;2.2;;;;;;;15.08;72.22168;95091.56;;;;
2022/09/09 01:38:58;;;;;;;3.6;2.2;;;;;;;15.08;72.22168;95091.56;;;;
2022/09/09 01:39:59;;;;;;;3.6;2.2;;;;;;;15.08;72.22168;95091.56;;;;
2022/09/09 01:41:00;;;;;;;3.6;2.2;;;;;;;15.08;72.22168;95091.56;;;;
2022/09/09 01:42:01;;;;;;;3.6;2.2;;;;;;;15.08;72.22168;95091.56;;;;
2022/09/09 01:43:02;;;;;;;3.6;2.2;;;;;;;15.08;72.22168;95091.56;;;;
2022/09/09 01:44:03;;;;;;;4;2;;;;;;;15.17;72.24707;95093.19;;;;
2022/09/09 01:45:05;;;;;;;4;2;;;;;;;15.17;72.24707;95093.19;;;;
2022/09/09 01:46:07;;;;;;;4;2;;;;;;;15.17;72.24707;95093.19;;;;
2022/09/09 01:47:08;;;;;;;4;2;;;;;;;15.17;72.24707;95093.19;;;;
2022/09/09 01:48:09;;;;;;;4;2;;;;;;;15.17;72.24707;95093.19;;;;
2022/09/09 01:49:09;;;;;;;4;2;;;;;;;15.17;72.24707;95093.19;;;;
2022/09/09 01:50:11;;;;;;;4;2;;;;;;;15.17;72.24707;95093.19;;;;
2022/09/09 01:51:15;;;;;;;4;2;;;;;;;15.17;72.24707;95093.19;;;;
2022/09/09 01:52:16;;;;;;;4;2;;;;;;;15.17;72.24707;95093.19;;;;
2022/09/09 01:53:17;;;;;;;4;2;;;;;;;15.17;72.24707;95093.19;;;;
2022/09/09 01:54:20;;;;;;;4;2;;;;;;;15.17;72.24707;95093.19;;;;
2022/09/09 01:55:24;;;;;;;2.4;2.2;;;;;;;15.07;72.31934;95096.51;;;;
2022/09/09 01:56:30;;;;;;;2.4;2.2;;;;;;;15.07;72.31934;95096.51;;;;
2022/09/09 01:57:40;;;;;;;2.4;2.2;;;;;;;15.07;72.31934;95096.51;;;;
2022/09/09 01:58:50;;;;;;;2.4;2.2;;;;;;;15.07;72.31934;95096.51;;;;
2022/09/09 02:00:03;;;;;;;2.4;2.2;;;;;;;15.07;72.31934;95096.51;;;;
2022/09/09 02:01:07;;;;;;;2.4;2.2;;;;;;;15.07;72.31934;95096.51;;;;
2022/09/09 02:02:16;;;;;;;2.4;2.2;;;;;;;15.07;72.31934;95096.51;;;;
2022/09/09 02:03:18;;;;;;;2.4;2.2;;;;;;;15.07;72.31934;95096.51;;;;
2022/09/09 02:04:25;;;;;;;2.4;2.2;;;;;;;15.07;72.31934;95096.51;;;;
2022/09/09 02:05:35;;;;;;;2.25;2.05;;;;;;;14.98;72.61914;95098.88;;;;
2022/09/09 02:06:39;;;;;;;2.25;2.05;;;;;;;14.98;72.61914;95098.88;;;;
2022/09/09 02:07:40;;;;;;;2.25;2.05;;;;;;;14.98;72.61914;95098.88;;;;
2022/09/09 02:08:43;;;;;;;2.25;2.05;;;;;;;14.98;72.61914;95098.88;;;;
2022/09/09 02:09:47;;;;;;;2.25;2.05;;;;;;;14.98;72.61914;95098.88;;;;
2022/09/09 02:10:57;;;;;;;2.25;2.05;;;;;;;14.98;72.61914;95098.88;;;;
2022/09/09 02:12:06;;;;;;;2.25;2.05;;;;;;;14.98;72.61914;95098.88;;;;
2022/09/09 02:13:13;;;;;;;2.25;2.05;;;;;;;14.98;72.61914;95098.88;;;;
2022/09/09 02:14:17;;;;;;;2.25;2.05;;;;;;;14.98;72.61914;95098.88;;;;
2022/09/09 02:15:24;;;;;;;2.25;2.05;;;;;;;14.98;72.61914;95098.88;;;;
2022/09/09 02:16:32;;;;;;;4.5;2.3;;;;;;;14.85;72.89063;95076.98;;;;
2022/09/09 02:17:39;;;;;;;4.5;2.3;;;;;;;14.85;72.89063;95076.98;;;;
2022/09/09 02:18:41;;;;;;;4.5;2.3;;;;;;;14.85;72.89063;95076.98;;;;
2022/09/09 02:19:48;;;;;;;4.5;2.3;;;;;;;14.85;72.89063;95076.98;;;;
2022/09/09 02:20:55;;;;;;;4.5;2.3;;;;;;;14.85;72.89063;95076.98;;;;
2022/09/09 02:21:58;;;;;;;4.5;2.3;;;;;;;14.85;72.89063;95076.98;;;;
2022/09/09 02:23:01;;;;;;;4.5;2.3;;;;;;;14.85;72.89063;95076.98;;;;
2022/09/09 02:24:04;;;;;;;4.5;2.3;;;;;;;14.85;72.89063;95076.98;;;;
2022/09/09 02:25:07;;;;;;;4.5;2.3;;;;;;;14.85;72.89063;95076.98;;;;
2022/09/09 02:26:14;;;;;;;4.5;2.3;;;;;;;14.85;72.89063;95076.98;;;;
2022/09/09 02:27:17;;;;;;;4;2.35;;;;;;;14.76;73.27734;95087.77;;;;
2022/09/09 02:28:21;;;;;;;4;2.35;;;;;;;14.76;73.27734;95087.77;;;;
2022/09/09 02:29:25;;;;;;;4;2.35;;;;;;;14.76;73.27734;95087.77;;;;
2022/09/09 02:30:31;;;;;;;4;2.35;;;;;;;14.76;73.27734;95087.77;;;;
2022/09/09 02:31:35;;;;;;;4;2.35;;;;;;;14.76;73.27734;95087.77;;;;
2022/09/09 02:32:39;;;;;;;4;2.35;;;;;;;14.76;73.27734;95087.77;;;;
2022/09/09 02:33:43;;;;;;;4;2.35;;;;;;;14.76;73.27734;95087.77;;;;
2022/09/09 02:34:57;;;;;;;4;2.35;;;;;;;14.76;73.27734;95087.77;;;;
2022/09/09 02:36:06;;;;;;;4;2.35;;;;;;;14.76;73.27734;95087.77;;;;
2022/09/09 02:37:09;;;;;;;4;2.35;;;;;;;14.76;73.27734;95087.77;;;;
2022/09/09 02:38:11;;;;;;;2.45;2.2;;;;;;;14.76;73.69043;95077.64;;;;
2022/09/09 02:39:15;;;;;;;2.45;2.2;;;;;;;14.76;73.69043;95077.64;;;;
2022/09/09 02:40:15;;;;;;;2.45;2.2;;;;;;;14.76;73.69043;95077.64;;;;
2022/09/09 02:41:16;;;;;;;2.45;2.2;;;;;;;14.76;73.69043;95077.64;;;;
2022/09/09 02:42:18;;;;;;;2.45;2.2;;;;;;;14.76;73.69043;95077.64;;;;
2022/09/09 02:43:19;;;;;;;2.45;2.2;;;;;;;14.76;73.69043;95077.64;;;;
2022/09/09 02:44:20;;;;;;;2.45;2.2;;;;;;;14.76;73.69043;95077.64;;;;
2022/09/09 02:45:20;;;;;;;2.45;2.2;;;;;;;14.76;73.69043;95077.64;;;;
2022/09/09 02:46:27;;;;;;;2.45;2.2;;;;;;;14.76;73.69043;95077.64;;;;
2022/09/09 02:47:43;;;;;;;2.45;2.2;;;;;;;14.76;73.69043;95077.64;;;;
2022/09/09 02:48:50;;;;;;;2.55;2.1;;;;;;;15.01;73.79688;95074.97;;;;
2022/09/09 02:49:59;;;;;;;2.55;2.1;;;;;;;15.01;73.79688;95074.97;;;;
2022/09/09 02:51:10;;;;;;;2.55;2.1;;;;;;;15.01;73.79688;95074.97;;;;
2022/09/09 02:52:18;;;;;;;2.55;2.1;;;;;;;15.01;73.79688;95074.97;;;;
2022/09/09 02:53:23;;;;;;;2.55;2.1;;;;;;;15.01;73.79688;95074.97;;;;
2022/09/09 02:54:31;;;;;;;2.55;2.1;;;;;;;15.01;73.79688;95074.97;;;;
2022/09/09 02:55:34;;;;;;;2.55;2.1;;;;;;;15.01;73.79688;95074.97;;;;
2022/09/09 02:56:39;;;;;;;2.55;2.1;;;;;;;15.01;73.79688;95074.97;;;;
2022/09/09 02:57:46;;;;;;;2.55;2.1;;;;;;;15.01;73.79688;95074.97;;;;
2022/09/09 02:58:49;;;;;;;3.25;2.15;;;;;;;15.12;73.86035;95077.92;;;;
2022/09/09 02:59:50;;;;;;;3.25;2.15;;;;;;;15.12;73.86035;95077.92;;;;
2022/09/09 03:00:50;;;;;;;3.25;2.15;;;;;;;15.12;73.86035;95077.92;;;;
2022/09/09 03:01:53;;;;;;;3.25;2.15;;;;;;;15.12;73.86035;95077.92;;;;
2022/09/09 03:02:54;;;;;;;3.25;2.15;;;;;;;15.12;73.86035;95077.92;;;;
2022/09/09 03:03:55;;;;;;;3.25;2.15;;;;;;;15.12;73.86035;95077.92;;;;
2022/09/09 03:04:55;;;;;;;3.25;2.15;;;;;;;15.12;73.86035;95077.92;;;;
2022/09/09 03:05:56;;;;;;;3.25;2.15;;;;;;;15.12;73.86035;95077.92;;;;
2022/09/09 03:06:57;;;;;;;3.25;2.15;;;;;;;15.12;73.86035;95077.92;;;;
2022/09/09 03:07:58;;;;;;;3.25;2.15;;;;;;;15.12;73.86035;95077.92;;;;
2022/09/09 03:09:01;;;;;;;3.25;2.15;;;;;;;15.12;73.86035;95077.92;;;;
2022/09/09 03:10:02;;;;;;;4.05;2;;;;;;;15.24;73.83594;95070.76;;;;
2022/09/09 03:11:03;;;;;;;4.05;2;;;;;;;15.24;73.83594;95070.76;;;;
2022/09/09 03:12:04;;;;;;;4.05;2;;;;;;;15.24;73.83594;95070.76;;;;
2022/09/09 03:13:05;;;;;;;4.05;2;;;;;;;15.24;73.83594;95070.76;;;;
2022/09/09 03:14:06;;;;;;;4.05;2;;;;;;;15.24;73.83594;95070.76;;;;
2022/09/09 03:15:06;;;;;;;4.05;2;;;;;;;15.24;73.83594;95070.76;;;;
2022/09/09 03:16:08;;;;;;;4.05;2;;;;;;;15.24;73.83594;95070.76;;;;
2022/09/09 03:17:09;;;;;;;4.05;2;;;;;;;15.24;73.83594;95070.76;;;;
2022/09/09 03:18:09;;;;;;;4.05;2;;;;;;;15.24;73.83594;95070.76;;;;
2022/09/09 03:19:10;;;;;;;4.05;2;;;;;;;15.24;73.83594;95070.76;;;;
2022/09/09 03:20:10;;;;;;;3;1.9;;;;;;;15.16;73.88867;95069.33;;;;
2022/09/09 03:21:11;;;;;;;3;1.9;;;;;;;15.16;73.88867;95069.33;;;;
2022/09/09 03:22:13;;;;;;;3;1.9;;;;;;;15.16;73.88867;95069.33;;;;
2022/09/09 03:23:13;;;;;;;3;1.9;;;;;;;15.16;73.88867;95069.33;;;;
2022/09/09 03:24:14;;;;;;;3;1.9;;;;;;;15.16;73.88867;95069.33;;;;
2022/09/09 03:25:14;;;;;;;3;1.9;;;;;;;15.16;73.88867;95069.33;;;;
2022/09/09 03:26:15;;;;;;;3;1.9;;;;;;;15.16;73.88867;95069.33;;;;
2022/09/09 03:27:16;;;;;;;3;1.9;;;;;;;15.16;73.88867;95069.33;;;;
2022/09/09 03:28:16;;;;;;;3;1.9;;;;;;;15.16;73.88867;95069.33;;;;
2022/09/09 03:29:18;;;;;;;3;1.9;;;;;;;15.16;73.88867;95069.33;;;;
2022/09/09 03:30:19;;;;;;;3;1.9;;;;;;;15.16;73.88867;95069.33;;;;
2022/09/09 03:31:19;;;;;;;2.6;2.1;;;;;;;14.96;74.18164;95070.39;;;;
2022/09/09 03:32:22;;;;;;;2.6;2.1;;;;;;;14.96;74.18164;95070.39;;;;
2022/09/09 03:33:22;;;;;;;2.6;2.1;;;;;;;14.96;74.18164;95070.39;;;;
2022/09/09 03:34:23;;;;;;;2.6;2.1;;;;;;;14.96;74.18164;95070.39;;;;
2022/09/09 03:35:24;;;;;;;2.6;2.1;;;;;;;14.96;74.18164;95070.39;;;;
2022/09/09 03:36:26;;;;;;;2.6;2.1;;;;;;;14.96;74.18164;95070.39;;;;
2022/09/09 03:37:26;;;;;;;2.6;2.1;;;;;;;14.96;74.18164;95070.39;;;;
2022/09/09 03:38:28;;;;;;;2.6;2.1;;;;;;;14.96;74.18164;95070.39;;;;
2022/09/09 03:39:28;;;;;;;2.6;2.1;;;;;;;14.96;74.18164;95070.39;;;;
2022/09/09 03:40:30;;;;;;;2.6;2.1;;;;;;;14.96;74.18164;95070.39;;;;
2022/09/09 03:41:31;;;;;;;3.3;2.35;;;;;;;14.65;74.59473;95065.23;;;;
2022/09/09 03:42:31;;;;;;;3.3;2.35;;;;;;;14.65;74.59473;95065.23;;;;
2022/09/09 03:43:32;;;;;;;3.3;2.35;;;;;;;14.65;74.59473;95065.23;;;;
2022/09/09 03:44:33;;;;;;;3.3;2.35;;;;;;;14.65;74.59473;95065.23;;;;
2022/09/09 03:45:33;;;;;;;3.3;2.35;;;;;;;14.65;74.59473;95065.23;;;;
2022/09/09 03:46:34;;;;;;;3.3;2.35;;;;;;;14.65;74.59473;95065.23;;;;
2022/09/09 03:47:34;;;;;;;3.3;2.35;;;;;;;14.65;74.59473;95065.23;;;;
2022/09/09 03:48:35;;;;;;;3.3;2.35;;;;;;;14.65;74.59473;95065.23;;;;
2022/09/09 03:49:35;;;;;;;3.3;2.35;;;;;;;14.65;74.59473;95065.23;;;;
2022/09/09 03:50:36;;;;;;;3.3;2.35;;;;;;;14.65;74.59473;95065.23;;;;
2022/09/09 03:51:38;;;;;;;3.3;2.35;;;;;;;14.65;74.59473;95065.23;;;;
2022/09/09 03:52:38;;;;;;;2.4;2.1;;;;;;;14.48;75.12207;95070.95;;;;
2022/09/09 03:53:41;;;;;;;2.4;2.1;;;;;;;14.48;75.12207;95070.95;;;;
2022/09/09 03:54:42;;;;;;;2.4;2.1;;;;;;;14.48;75.12207;95070.95;;;;
2022/09/09 03:55:42;;;;;;;2.4;2.1;;;;;;;14.48;75.12207;95070.95;;;;
2022/09/09 03:56:45;;;;;;;2.4;2.1;;;;;;;14.48;75.12207;95070.95;;;;
2022/09/09 03:57:45;;;;;;;2.4;2.1;;;;;;;14.48;75.12207;95070.95;;;;
2022/09/09 03:58:46;;;;;;;2.4;2.1;;;;;;;14.48;75.12207;95070.95;;;;
2022/09/09 03:59:46;;;;;;;2.4;2.1;;;;;;;14.48;75.12207;95070.95;;;;
2022/09/09 04:00:47;;;;;;;2.4;2.1;;;;;;;14.48;75.12207;95070.95;;;;
2022/09/09 04:01:54;;;;;;;2.4;2.1;;;;;;;14.48;75.12207;95070.95;;;;
2022/09/09 04:02:56;;;;;;;3.7;2.1;;;;;;;14.47;75.38965;95063.22;;;;
2022/09/09 04:03:57;;;;;;;3.7;2.1;;;;;;;14.47;75.38965;95063.22;;;;
2022/09/09 04:04:59;;;;;;;3.7;2.1;;;;;;;14.47;75.38965;95063.22;;;;
2022/09/09 04:06:00;;;;;;;3.7;2.1;;;;;;;14.47;75.38965;95063.22;;;;
2022/09/09 04:07:06;;;;;;;3.7;2.1;;;;;;;14.47;75.38965;95063.22;;;;
2022/09/09 04:08:08;;;;;;;3.7;2.1;;;;;;;14.47;75.38965;95063.22;;;;
2022/09/09 04:09:09;;;;;;;3.7;2.1;;;;;;;14.47;75.38965;95063.22;;;;
2022/09/09 04:10:09;;;;;;;3.7;2.1;;;;;;;14.47;75.38965;95063.22;;;;
2022/09/09 04:11:10;;;;;;;3.7;2.1;;;;;;;14.47;75.38965;95063.22;;;;
2022/09/09 04:12:13;;;;;;;3.7;2.1;;;;;;;14.47;75.38965;95063.22;;;;
2022/09/09 04:13:15;;;;;;;3.7;2.1;;;;;;;14.47;75.38965;95063.22;;;;
2022/09/09 04:14:17;;;;;;;3.45;2.1;;;;;;;14.63;75.60156;95055.35;;;;
2022/09/09 04:15:18;;;;;;;3.45;2.1;;;;;;;14.63;75.60156;95055.35;;;;
2022/09/09 04:16:19;;;;;;;3.45;2.1;;;;;;;14.63;75.60156;95055.35;;;;
2022/09/09 04:17:20;;;;;;;3.45;2.1;;;;;;;14.63;75.60156;95055.35;;;;
2022/09/09 04:18:21;;;;;;;3.45;2.1;;;;;;;14.63;75.60156;95055.35;;;;
2022/09/09 04:19:22;;;;;;;3.45;2.1;;;;;;;14.63;75.60156;95055.35;;;;
2022/09/09 04:20:22;;;;;;;3.45;2.1;;;;;;;14.63;75.60156;95055.35;;;;
2022/09/09 04:21:23;;;;;;;3.45;2.1;;;;;;;14.63;75.60156;95055.35;;;;
2022/09/09 04:22:24;;;;;;;3.45;2.1;;;;;;;14.63;75.60156;95055.35;;;;
2022/09/09 04:23:25;;;;;;;3.45;2.1;;;;;;;14.63;75.60156;95055.35;;;;
2022/09/09 04:24:28;;;;;;;3.45;2.1;;;;;;;14.63;75.60156;95055.35;;;;
2022/09/09 04:25:29;;;;;;;3.45;2.1;;;;;;;14.63;75.60156;95055.35;;;;
2022/09/09 04:26:30;;;;;;;3.45;2.1;;;;;;;14.63;75.60156;95055.35;;;;
2022/09/09 04:27:30;;;;;;;3.45;2.1;;;;;;;14.63;75.60156;95055.35;;;;
2022/09/09 04:28:31;;;;;;;3.45;2.1;;;;;;;14.63;75.60156;95055.35;;;;
2022/09/09 04:29:33;;;;;;;3.45;2.1;;;;;;;14.63;75.60156;95055.35;;;;
2022/09/09 04:30:34;;;;;;;3.45;2.1;;;;;;;14.63;75.60156;95055.35;;;;
2022/09/09 04:31:35;;;;;;;3.45;2.1;;;;;;;14.63;75.60156;95055.35;;;;
2022/09/09 04:32:36;;;;;;;3.45;2.1;;;;;;;14.63;75.60156;95055.35;;;;
2022/09/09 04:33:38;;;;;;;3.45;2.1;;;;;;;14.63;75.60156;95055.35;;;;
2022/09/09 04:34:39;;;;;;;3.45;2.1;;;;;;;14.63;75.60156;95055.35;;;;
2022/09/09 04:35:40;;;;;;;3.45;2.1;;;;;;;14.63;75.60156;95055.35;;;;
2022/09/09 04:36:45;;;;;;;3.45;2.1;;;;;;;14.63;75.60156;95055.35;;;;
2022/09/09 04:37:46;;;;;;;3.45;2.1;;;;;;;14.63;75.60156;95055.35;;;;
2022/09/09 04:38:48;;;;;;;3.45;2.1;;;;;;;14.63;75.60156;95055.35;;;;
2022/09/09 04:39:48;;;;;;;3.45;2.1;;;;;;;14.63;75.60156;95055.35;;;;
2022/09/09 04:40:49;;;;;;;3.45;2.1;;;;;;;14.63;75.60156;95055.35;;;;
2022/09/09 04:41:51;;;;;;;3.45;2.1;;;;;;;14.63;75.60156;95055.35;;;;
2022/09/09 04:42:51;;;;;;;3.45;2.1;;;;;;;14.63;75.60156;95055.35;;;;
2022/09/09 04:43:53;;;;;;;3.45;2.1;;;;;;;14.63;75.60156;95055.35;;;;
2022/09/09 04:44:54;;;;;;;3.45;2.1;;;;;;;14.63;75.60156;95055.35;;;;
2022/09/09 04:45:55;;;;;;;4.6;2.2;;;;;;;14.52;75.73438;95032.3;;;;
2022/09/09 04:46:56;;;;;;;4.6;2.2;;;;;;;14.52;75.73438;95032.3;;;;
2022/09/09 04:47:56;;;;;;;4.6;2.2;;;;;;;14.52;75.73438;95032.3;;;;
2022/09/09 04:48:57;;;;;;;4.6;2.2;;;;;;;14.52;75.73438;95032.3;;;;
2022/09/09 04:49:57;;;;;;;4.6;2.2;;;;;;;14.52;75.73438;95032.3;;;;
2022/09/09 04:50:58;;;;;;;4.6;2.2;;;;;;;14.52;75.73438;95032.3;;;;
2022/09/09 04:52:00;;;;;;;4.6;2.2;;;;;;;14.52;75.73438;95032.3;;;;
2022/09/09 04:53:01;;;;;;;4.6;2.2;;;;;;;14.52;75.73438;95032.3;;;;
2022/09/09 04:54:02;;;;;;;4.6;2.2;;;;;;;14.52;75.73438;95032.3;;;;
2022/09/09 04:55:03;;;;;;;4.6;2.2;;;;;;;14.52;75.73438;95032.3;;;;
2022/09/09 04:56:05;;;;;;;2.85;2.15;;;;;;;14.46;75.98535;95029.15;;;;
2022/09/09 04:57:08;;;;;;;2.85;2.15;;;;;;;14.46;75.98535;95029.15;;;;
2022/09/09 04:58:11;;;;;;;2.85;2.15;;;;;;;14.46;75.98535;95029.15;;;;
2022/09/09 04:59:11;;;;;;;2.85;2.15;;;;;;;14.46;75.98535;95029.15;;;;
2022/09/09 05:00:12;;;;;;;2.85;2.15;;;;;;;14.46;75.98535;95029.15;;;;
2022/09/09 05:01:14;;;;;;;2.85;2.15;;;;;;;14.46;75.98535;95029.15;;;;
2022/09/09 05:02:16;;;;;;;2.85;2.15;;;;;;;14.46;75.98535;95029.15;;;;
2022/09/09 05:03:17;;;;;;;2.85;2.15;;;;;;;14.46;75.98535;95029.15;;;;
2022/09/09 05:04:19;;;;;;;2.85;2.15;;;;;;;14.46;75.98535;95029.15;;;;
2022/09/09 05:05:19;;;;;;;2.85;2.15;;;;;;;14.46;75.98535;95029.15;;;;
2022/09/09 05:06:20;;;;;;;2.85;2.15;;;;;;;14.46;75.98535;95029.15;;;;
2022/09/09 05:07:22;;;;;;;3.2;2.15;;;;;;;14.42;76.11816;95044.1;;;;
2022/09/09 05:08:23;;;;;;;3.2;2.15;;;;;;;14.42;76.11816;95044.1;;;;
2022/09/09 05:09:23;;;;;;;3.2;2.15;;;;;;;14.42;76.11816;95044.1;;;;
2022/09/09 05:10:24;;;;;;;3.2;2.15;;;;;;;14.42;76.11816;95044.1;;;;
2022/09/09 05:11:24;;;;;;;3.2;2.15;;;;;;;14.42;76.11816;95044.1;;;;
2022/09/09 05:12:26;;;;;;;3.2;2.15;;;;;;;14.42;76.11816;95044.1;;;;
2022/09/09 05:13:27;;;;;;;3.2;2.15;;;;;;;14.42;76.11816;95044.1;;;;
2022/09/09 05:14:27;;;;;;;3.2;2.15;;;;;;;14.42;76.11816;95044.1;;;;
2022/09/09 05:15:28;;;;;;;3.2;2.15;;;;;;;14.42;76.11816;95044.1;;;;
2022/09/09 05:16:29;;;;;;;3.2;2.15;;;;;;;14.42;76.11816;95044.1;;;;
2022/09/09 05:17:31;;;;;;;2.3;1.9;;;;;;;14.47;76.33398;95043.67;;;;
2022/09/09 05:18:31;;;;;;;2.3;1.9;;;;;;;14.47;76.33398;95043.67;;;;
2022/09/09 05:19:32;;;;;;;2.3;1.9;;;;;;;14.47;76.33398;95043.67;;;;
2022/09/09 05:20:32;;;;;;;2.3;1.9;;;;;;;14.47;76.33398;95043.67;;;;
2022/09/09 05:21:33;;;;;;;2.3;1.9;;;;;;;14.47;76.33398;95043.67;;;;
2022/09/09 05:22:34;;;;;;;2.3;1.9;;;;;;;14.47;76.33398;95043.67;;;;
2022/09/09 05:23:35;;;;;;;2.3;1.9;;;;;;;14.47;76.33398;95043.67;;;;
2022/09/09 05:24:36;;;;;;;2.3;1.9;;;;;;;14.47;76.33398;95043.67;;;;
2022/09/09 05:25:37;;;;;;;2.3;1.9;;;;;;;14.47;76.33398;95043.67;;;;
2022/09/09 05:26:37;;;;;;;2.3;1.9;;;;;;;14.47;76.33398;95043.67;;;;
2022/09/09 05:27:38;;;;;;;2.3;1.9;;;;;;;14.47;76.33398;95043.67;;;;
2022/09/09 05:28:38;;;;;;;2.6;1.7;;;;;;;14.58;76.23438;95042.38;;;;
2022/09/09 05:29:41;;;;;;;2.6;1.7;;;;;;;14.58;76.23438;95042.38;;;;
2022/09/09 05:30:41;;;;;;;2.6;1.7;;;;;;;14.58;76.23438;95042.38;;;;
2022/09/09 05:31:42;;;;;;;2.6;1.7;;;;;;;14.58;76.23438;95042.38;;;;
2022/09/09 05:32:43;;;;;;;2.6;1.7;;;;;;;14.58;76.23438;95042.38;;;;
2022/09/09 05:33:45;;;;;;;2.6;1.7;;;;;;;14.58;76.23438;95042.38;;;;
2022/09/09 05:34:47;;;;;;;2.6;1.7;;;;;;;14.58;76.23438;95042.38;;;;
2022/09/09 05:35:48;;;;;;;2.6;1.7;;;;;;;14.58;76.23438;95042.38;;;;
2022/09/09 05:36:55;;;;;;;2.6;1.7;;;;;;;14.58;76.23438;95042.38;;;;
2022/09/09 05:37:56;;;;;;;2.6;1.7;;;;;;;14.58;76.23438;95042.38;;;;
2022/09/09 05:39:00;;;;;;;2.15;1.9;;;;;;;14.84;76.21387;95056.35;;;;
2022/09/09 05:40:01;;;;;;;2.15;1.9;;;;;;;14.84;76.21387;95056.35;;;;
2022/09/09 05:41:02;;;;;;;2.15;1.9;;;;;;;14.84;76.21387;95056.35;;;;
2022/09/09 05:42:04;;;;;;;2.15;1.9;;;;;;;14.84;76.21387;95056.35;;;;
2022/09/09 05:43:05;;;;;;;2.15;1.9;;;;;;;14.84;76.21387;95056.35;;;;
2022/09/09 05:44:06;;;;;;;2.15;1.9;;;;;;;14.84;76.21387;95056.35;;;;
2022/09/09 05:45:07;;;;;;;2.15;1.9;;;;;;;14.84;76.21387;95056.35;;;;
2022/09/09 05:46:09;;;;;;;2.15;1.9;;;;;;;14.84;76.21387;95056.35;;;;
2022/09/09 05:47:11;;;;;;;2.15;1.9;;;;;;;14.84;76.21387;95056.35;;;;
2022/09/09 05:48:12;;;;;;;2.15;1.9;;;;;;;14.84;76.21387;95056.35;;;;
2022/09/09 05:49:12;;;;;;;2.15;1.9;;;;;;;14.84;76.21387;95056.35;;;;
2022/09/09 05:50:13;;;;;;;2.55;1.7;;;;;;;15.01;76.09082;95053.54;;;;
2022/09/09 05:51:15;;;;;;;2.55;1.7;;;;;;;15.01;76.09082;95053.54;;;;
2022/09/09 05:52:17;;;;;;;2.55;1.7;;;;;;;15.01;76.09082;95053.54;;;;
2022/09/09 05:53:18;;;;;;;2.55;1.7;;;;;;;15.01;76.09082;95053.54;;;;
2022/09/09 05:54:18;;;;;;;2.55;1.7;;;;;;;15.01;76.09082;95053.54;;;;
2022/09/09 05:55:19;;;;;;;2.55;1.7;;;;;;;15.01;76.09082;95053.54;;;;
2022/09/09 05:56:20;;;;;;;2.55;1.7;;;;;;;15.01;76.09082;95053.54;;;;
2022/09/09 05:57:22;;;;;;;2.55;1.7;;;;;;;15.01;76.09082;95053.54;;;;
2022/09/09 05:58:24;;;;;;;2.55;1.7;;;;;;;15.01;76.09082;95053.54;;;;
2022/09/09 05:59:24;;;;;;;2.55;1.7;;;;;;;15.01;76.09082;95053.54;;;;
2022/09/09 06:00:26;;;;;;;2.6;1.7;;;;;;;15.29;76.09668;95069.5;;;;
2022/09/09 06:01:26;;;;;;;2.6;1.7;;;;;;;15.29;76.09668;95069.5;;;;
2022/09/09 06:02:29;;;;;;;2.6;1.7;;;;;;;15.29;76.09668;95069.5;;;;
2022/09/09 06:03:29;;;;;;;2.6;1.7;;;;;;;15.29;76.09668;95069.5;;;;
2022/09/09 06:04:31;;;;;;;2.6;1.7;;;;;;;15.29;76.09668;95069.5;;;;
2022/09/09 06:05:31;;;;;;;2.6;1.7;;;;;;;15.29;76.09668;95069.5;;;;
2022/09/09 06:06:36;;;;;;;2.6;1.7;;;;;;;15.29;76.09668;95069.5;;;;
2022/09/09 06:07:41;;;;;;;2.6;1.7;;;;;;;15.29;76.09668;95069.5;;;;